Time;durP1;ratioP1;P1;durP2;ratioP2;P2;SDS_P1;SDS_P2;PMS_P1;PMS_P2;Temp;Humidity;BMP_temperature;BMP_pressure;BME280_temperature;BME280_humidity;BME280_pressure;Samples;Min_cycle;Max_cycle;Signal;HPM_P1;HPM_P2
2024/01/31 00:02:15;;;;;;;24.37;9.53;;;;;;;;;;4980027;28;20762;-72
2024/01/31 00:04:40;;;;;;;22.77;9.30;;;;;;;;;;4967873;28;20290;-72
2024/01/31 00:07:06;;;;;;;23.13;9.60;;;;;;;;;;4983038;28;20396;-71
2024/01/31 00:09:31;;;;;;;26.20;9.70;;;;;;;;;;4964354;28;20231;-71
2024/01/31 00:11:56;;;;;;;23.73;9.50;;;;;;;;;;4985228;28;20227;-72
2024/01/31 00:14:22;;;;;;;22.40;9.10;;;;;;;;;;4978709;28;20231;-72
2024/01/31 00:16:47;;;;;;;26.30;9.97;;;;;;;;;;4968040;28;20629;-71
2024/01/31 00:19:12;;;;;;;21.60;9.50;;;;;;;;;;4979546;28;20234;-71
2024/01/31 00:21:38;;;;;;;25.40;10.00;;;;;;;;;;4993055;28;20219;-72
2024/01/31 00:24:04;;;;;;;26.13;9.90;;;;;;;;;;4978464;28;20228;-72
2024/01/31 00:26:29;;;;;;;26.73;10.03;;;;;;;;;;4977372;28;20724;-73
2024/01/31 00:28:55;;;;;;;24.80;9.77;;;;;;;;;;4978852;28;20307;-72
2024/01/31 00:31:20;;;;;;;22.80;9.80;;;;;;;;;;4967130;28;20729;-73
2024/01/31 00:33:46;;;;;;;23.53;10.17;;;;;;;;;;4978548;28;20232;-72
2024/01/31 00:36:12;;;;;;;25.43;9.90;;;;;;;;;;4962807;28;20928;-72
2024/01/31 00:38:37;;;;;;;25.93;10.53;;;;;;;;;;4981849;28;20227;-72
2024/01/31 00:41:02;;;;;;;25.80;11.30;;;;;;;;;;4982067;28;20230;-72
2024/01/31 00:43:28;;;;;;;31.57;11.43;;;;;;;;;;4980803;28;20231;-72
2024/01/31 00:45:53;;;;;;;28.83;11.57;;;;;;;;;;4977889;28;20223;-72
2024/01/31 00:48:18;;;;;;;30.07;11.10;;;;;;;;;;4965176;28;20226;-72
2024/01/31 00:50:44;;;;;;;29.40;11.77;;;;;;;;;;4984095;28;20240;-72
2024/01/31 00:53:09;;;;;;;29.63;11.37;;;;;;;;;;4981043;28;20710;-73
2024/01/31 00:55:34;;;;;;;30.83;12.07;;;;;;;;;;4981784;28;20693;-72
2024/01/31 00:58:00;;;;;;;31.20;11.80;;;;;;;;;;4978488;28;20687;-72
2024/01/31 01:00:26;;;;;;;25.73;11.40;;;;;;;;;;4967058;28;20242;-72
2024/01/31 01:02:51;;;;;;;29.17;11.60;;;;;;;;;;4981763;28;20228;-72
2024/01/31 01:05:17;;;;;;;33.17;11.87;;;;;;;;;;4980194;28;20314;-73
2024/01/31 01:07:45;;;;;;;31.97;11.37;;;;;;;;;;4980137;28;20293;-73
2024/01/31 01:10:14;;;;;;;28.53;11.57;;;;;;;;;;4981076;28;20231;-72
2024/01/31 01:12:39;;;;;;;32.47;12.10;;;;;;;;;;4961725;28;20704;-72
2024/01/31 01:15:05;;;;;;;31.07;12.00;;;;;;;;;;4986110;28;20257;-71
2024/01/31 01:17:31;;;;;;;30.33;12.10;;;;;;;;;;4985815;28;20239;-73
2024/01/31 01:19:57;;;;;;;33.03;13.17;;;;;;;;;;4968427;28;20736;-73
2024/01/31 01:22:23;;;;;;;37.40;14.80;;;;;;;;;;4984307;28;20238;-73
2024/01/31 01:24:48;;;;;;;42.80;17.00;;;;;;;;;;4985734;28;20251;-77
2024/01/31 01:27:14;;;;;;;47.57;18.20;;;;;;;;;;4982858;28;20255;-77
2024/01/31 01:29:39;;;;;;;51.23;20.33;;;;;;;;;;4986254;28;20338;-77
2024/01/31 01:32:05;;;;;;;55.60;19.30;;;;;;;;;;4983734;28;20231;-77
2024/01/31 01:34:30;;;;;;;47.87;17.97;;;;;;;;;;4982615;28;20312;-77
2024/01/31 01:36:55;;;;;;;44.17;17.67;;;;;;;;;;4983137;28;20330;-77
2024/01/31 01:39:21;;;;;;;45.20;17.37;;;;;;;;;;4986054;28;20725;-78
2024/01/31 01:41:49;;;;;;;45.53;16.87;;;;;;;;;;4986685;28;20338;-77
2024/01/31 01:44:15;;;;;;;41.90;16.17;;;;;;;;;;4985610;28;20764;-77
2024/01/31 01:46:40;;;;;;;44.47;16.83;;;;;;;;;;4986632;28;20223;-77
2024/01/31 01:49:05;;;;;;;44.37;16.53;;;;;;;;;;4985019;28;20227;-77
2024/01/31 01:51:31;;;;;;;45.00;15.57;;;;;;;;;;4981123;28;20232;-77
2024/01/31 01:53:56;;;;;;;40.83;15.03;;;;;;;;;;4965959;28;20219;-77
2024/01/31 01:56:21;;;;;;;38.03;13.97;;;;;;;;;;4984486;28;20308;-77
2024/01/31 01:58:48;;;;;;;36.97;14.23;;;;;;;;;;4982476;28;20234;-77
2024/01/31 02:01:13;;;;;;;32.60;12.03;;;;;;;;;;4961570;28;20315;-77
2024/01/31 02:03:39;;;;;;;31.83;12.10;;;;;;;;;;4982025;28;20370;-77
2024/01/31 02:06:04;;;;;;;30.63;11.97;;;;;;;;;;4983411;28;20281;-77
2024/01/31 02:08:30;;;;;;;32.93;11.50;;;;;;;;;;4984199;28;20231;-77
2024/01/31 02:10:55;;;;;;;31.33;12.13;;;;;;;;;;4982401;28;20231;-77
2024/01/31 02:13:21;;;;;;;31.80;12.07;;;;;;;;;;4966216;28;20242;-78
2024/01/31 02:15:56;;;;;;;30.03;12.07;;;;;;;;;;4981665;28;20227;-78
2024/01/31 02:18:21;;;;;;;36.63;12.50;;;;;;;;;;4983548;28;20243;-78
2024/01/31 02:20:47;;;;;;;33.03;12.30;;;;;;;;;;4987910;28;20222;-78
2024/01/31 02:23:12;;;;;;;32.33;12.27;;;;;;;;;;4983187;28;20224;-77
2024/01/31 02:25:37;;;;;;;30.40;12.20;;;;;;;;;;4972424;28;20215;-78
2024/01/31 02:28:03;;;;;;;32.10;11.57;;;;;;;;;;4982671;28;20384;-78
2024/01/31 02:30:28;;;;;;;33.93;12.70;;;;;;;;;;4964085;28;20870;-78
2024/01/31 02:32:54;;;;;;;34.23;12.60;;;;;;;;;;4980096;28;20885;-78
2024/01/31 02:35:19;;;;;;;34.83;13.20;;;;;;;;;;4999298;28;20772;-76
2024/01/31 02:37:45;;;;;;;36.87;13.20;;;;;;;;;;4981608;28;20234;-78
2024/01/31 02:40:10;;;;;;;31.17;12.60;;;;;;;;;;4982113;28;20227;-77
2024/01/31 02:42:36;;;;;;;32.47;13.00;;;;;;;;;;4979348;28;20227;-77
2024/01/31 02:45:01;;;;;;;38.50;13.73;;;;;;;;;;4982883;28;20231;-77
2024/01/31 02:47:26;;;;;;;37.47;13.47;;;;;;;;;;4977201;28;20239;-78
2024/01/31 02:49:52;;;;;;;32.63;12.30;;;;;;;;;;4997864;28;20235;-78
2024/01/31 02:52:17;;;;;;;34.20;13.13;;;;;;;;;;4982169;28;20602;-77
2024/01/31 02:54:42;;;;;;;36.50;13.70;;;;;;;;;;4963067;28;20224;-77
2024/01/31 02:57:08;;;;;;;30.93;12.73;;;;;;;;;;4978080;28;20251;-77
2024/01/31 02:59:33;;;;;;;34.80;13.43;;;;;;;;;;4983460;28;20293;-77
2024/01/31 03:01:58;;;;;;;33.83;12.80;;;;;;;;;;4972444;28;20275;-77
2024/01/31 03:04:24;;;;;;;32.57;12.53;;;;;;;;;;4960223;28;20279;-77
2024/01/31 03:06:49;;;;;;;31.30;12.37;;;;;;;;;;4979076;28;20282;-77
2024/01/31 03:09:15;;;;;;;32.33;12.70;;;;;;;;;;4979587;28;20777;-77
2024/01/31 03:11:40;;;;;;;30.83;12.90;;;;;;;;;;4978981;28;20278;-77
2024/01/31 03:14:05;;;;;;;34.27;13.03;;;;;;;;;;4980905;28;20310;-77
2024/01/31 03:16:31;;;;;;;39.23;12.83;;;;;;;;;;4976529;28;20235;-77
2024/01/31 03:18:58;;;;;;;29.60;12.27;;;;;;;;;;4981221;28;20231;-77
2024/01/31 03:21:23;;;;;;;31.47;12.37;;;;;;;;;;4978823;28;20227;-77
2024/01/31 03:23:49;;;;;;;35.37;12.80;;;;;;;;;;4981384;28;20298;-77
2024/01/31 03:26:14;;;;;;;43.73;16.53;;;;;;;;;;4982825;28;20719;-77
2024/01/31 03:28:40;;;;;;;34.63;13.57;;;;;;;;;;4990013;28;20231;-72
2024/01/31 03:31:05;;;;;;;30.03;12.07;;;;;;;;;;4977440;28;20279;-72
2024/01/31 03:33:30;;;;;;;32.03;12.50;;;;;;;;;;4978451;28;20761;-73
2024/01/31 03:35:57;;;;;;;32.87;13.23;;;;;;;;;;4982848;28;20967;-73
2024/01/31 03:38:22;;;;;;;32.30;13.00;;;;;;;;;;4975459;28;20236;-74
2024/01/31 03:40:47;;;;;;;33.23;12.60;;;;;;;;;;4976363;28;20223;-72
2024/01/31 03:43:13;;;;;;;39.33;14.87;;;;;;;;;;4982877;28;20231;-73
2024/01/31 03:45:38;;;;;;;37.80;14.60;;;;;;;;;;4984109;28;20215;-72
2024/01/31 03:48:04;;;;;;;36.67;13.63;;;;;;;;;;4968447;28;20677;-71
2024/01/31 03:50:29;;;;;;;37.37;14.83;;;;;;;;;;4968027;28;20247;-72
2024/01/31 03:52:55;;;;;;;43.10;16.00;;;;;;;;;;4998218;28;20231;-72
2024/01/31 03:55:20;;;;;;;43.50;15.87;;;;;;;;;;4994299;28;20224;-72
2024/01/31 03:57:45;;;;;;;45.77;16.63;;;;;;;;;;4981364;28;20250;-71
2024/01/31 04:00:11;;;;;;;48.20;16.70;;;;;;;;;;4977362;28;20709;-77
2024/01/31 04:02:37;;;;;;;50.00;18.50;;;;;;;;;;4973690;28;20231;-72
2024/01/31 04:05:02;;;;;;;52.33;19.47;;;;;;;;;;4983461;28;20250;-73
2024/01/31 04:07:28;;;;;;;53.97;19.53;;;;;;;;;;4983244;28;20223;-73
2024/01/31 04:09:54;;;;;;;55.73;19.97;;;;;;;;;;4970932;28;20286;-71
2024/01/31 04:12:19;;;;;;;54.07;19.70;;;;;;;;;;4981002;28;20744;-71
2024/01/31 04:14:44;;;;;;;54.27;19.60;;;;;;;;;;4978232;28;20310;-72
2024/01/31 04:17:10;;;;;;;59.50;20.90;;;;;;;;;;4995420;28;20235;-73
2024/01/31 04:19:36;;;;;;;61.03;21.10;;;;;;;;;;4981408;28;20699;-73
2024/01/31 04:22:02;;;;;;;58.73;21.07;;;;;;;;;;4982547;28;20228;-73
2024/01/31 04:24:27;;;;;;;62.70;21.30;;;;;;;;;;4995446;28;20220;-73
2024/01/31 04:26:52;;;;;;;55.27;20.50;;;;;;;;;;4984587;28;20262;-73
2024/01/31 04:29:18;;;;;;;60.10;20.77;;;;;;;;;;4978940;28;20236;-73
2024/01/31 04:31:43;;;;;;;59.60;20.43;;;;;;;;;;4977197;28;20235;-73
2024/01/31 04:34:08;;;;;;;54.80;19.30;;;;;;;;;;4983984;28;20239;-72
2024/01/31 04:36:34;;;;;;;54.67;19.20;;;;;;;;;;4982422;28;20830;-72
2024/01/31 04:38:59;;;;;;;55.47;20.17;;;;;;;;;;4982207;28;20243;-73
2024/01/31 04:41:25;;;;;;;55.83;20.67;;;;;;;;;;4991408;28;20236;-72
2024/01/31 04:43:50;;;;;;;59.40;20.33;;;;;;;;;;4983758;28;20234;-78
2024/01/31 04:46:16;;;;;;;56.67;20.60;;;;;;;;;;4977566;28;20234;-78
2024/01/31 04:48:41;;;;;;;51.17;18.63;;;;;;;;;;4983994;28;20310;-78
2024/01/31 04:51:06;;;;;;;54.90;19.13;;;;;;;;;;4983593;28;20633;-78
2024/01/31 04:53:31;;;;;;;52.20;18.87;;;;;;;;;;4980538;28;20253;-78
2024/01/31 04:55:57;;;;;;;48.33;17.77;;;;;;;;;;4965254;28;20624;-77
2024/01/31 04:58:22;;;;;;;49.20;18.60;;;;;;;;;;4978619;28;20655;-77
2024/01/31 05:00:47;;;;;;;54.20;18.90;;;;;;;;;;4978483;28;20250;-78
2024/01/31 05:03:13;;;;;;;54.03;19.30;;;;;;;;;;4977110;28;20236;-78
2024/01/31 05:05:38;;;;;;;54.73;19.90;;;;;;;;;;4980575;28;20254;-77
2024/01/31 05:08:04;;;;;;;54.20;19.83;;;;;;;;;;4979247;28;20231;-78
2024/01/31 05:10:32;;;;;;;54.50;18.93;;;;;;;;;;4973401;28;20327;-79
2024/01/31 05:12:57;;;;;;;52.33;17.67;;;;;;;;;;4973385;28;20283;-78
2024/01/31 05:15:22;;;;;;;53.53;19.90;;;;;;;;;;4974238;28;20235;-77
2024/01/31 05:17:48;;;;;;;56.03;21.03;;;;;;;;;;4975823;28;20241;-77
2024/01/31 05:20:13;;;;;;;63.20;24.37;;;;;;;;;;4979633;28;20220;-78
2024/01/31 05:22:38;;;;;;;73.87;27.10;;;;;;;;;;4995545;28;20231;-77
2024/01/31 05:25:05;;;;;;;73.47;26.93;;;;;;;;;;4982174;28;20613;-77
2024/01/31 05:27:30;;;;;;;76.33;28.27;;;;;;;;;;4965720;28;20235;-77
2024/01/31 05:29:56;;;;;;;84.90;28.90;;;;;;;;;;4979350;28;20607;-77
2024/01/31 05:32:21;;;;;;;101.40;34.27;;;;;;;;;;4982909;28;20830;-78
2024/01/31 05:34:48;;;;;;;113.47;36.93;;;;;;;;;;4977032;28;20479;-71
2024/01/31 05:37:13;;;;;;;124.63;36.53;;;;;;;;;;4978213;28;20613;-72
2024/01/31 05:39:39;;;;;;;125.30;37.70;;;;;;;;;;4980146;28;20727;-72
2024/01/31 05:42:04;;;;;;;119.70;36.10;;;;;;;;;;4984463;28;20235;-72
2024/01/31 05:44:29;;;;;;;103.47;33.07;;;;;;;;;;4971852;28;20250;-71
2024/01/31 05:46:55;;;;;;;96.67;31.57;;;;;;;;;;4968944;28;20228;-72
2024/01/31 05:49:20;;;;;;;94.47;31.73;;;;;;;;;;4975117;28;20335;-75
2024/01/31 05:51:46;;;;;;;100.60;32.23;;;;;;;;;;4982760;28;20236;-75
2024/01/31 05:54:11;;;;;;;80.87;29.33;;;;;;;;;;4973351;28;20346;-75
2024/01/31 05:56:38;;;;;;;78.70;29.03;;;;;;;;;;4976538;28;20224;-75
2024/01/31 05:59:03;;;;;;;80.20;27.70;;;;;;;;;;4980211;28;20830;-75
2024/01/31 06:01:28;;;;;;;81.70;28.87;;;;;;;;;;4963235;28;20228;-75
2024/01/31 06:03:54;;;;;;;84.73;29.43;;;;;;;;;;4982512;28;20764;-75
2024/01/31 06:06:19;;;;;;;75.10;27.53;;;;;;;;;;4986347;28;21005;-75
2024/01/31 06:08:47;;;;;;;74.83;27.63;;;;;;;;;;4964618;28;20242;-76
2024/01/31 06:11:13;;;;;;;72.83;26.83;;;;;;;;;;4983635;28;20689;-75
2024/01/31 06:13:39;;;;;;;72.00;26.43;;;;;;;;;;4983111;28;20330;-76
2024/01/31 06:16:04;;;;;;;77.67;26.57;;;;;;;;;;4981135;28;20319;-76
2024/01/31 06:18:34;;;;;;;80.70;27.43;;;;;;;;;;4981897;28;20243;-77
2024/01/31 06:20:59;;;;;;;73.53;27.20;;;;;;;;;;4984796;28;20623;-76
2024/01/31 06:23:26;;;;;;;75.23;27.70;;;;;;;;;;4957886;28;21093;-76
2024/01/31 06:25:51;;;;;;;80.33;27.83;;;;;;;;;;4970398;28;20215;-75
2024/01/31 06:28:16;;;;;;;77.63;27.87;;;;;;;;;;4982102;28;20232;-75
2024/01/31 06:30:44;;;;;;;73.07;26.73;;;;;;;;;;4965447;28;20235;-72
2024/01/31 06:33:10;;;;;;;71.27;25.47;;;;;;;;;;4978125;28;20220;-75
2024/01/31 06:35:36;;;;;;;74.63;27.20;;;;;;;;;;4980067;28;20223;-72
2024/01/31 06:38:01;;;;;;;73.83;26.67;;;;;;;;;;4981189;28;20612;-72
2024/01/31 06:40:27;;;;;;;71.17;26.27;;;;;;;;;;4968325;28;20216;-72
2024/01/31 06:42:52;;;;;;;70.30;25.80;;;;;;;;;;4983518;28;20238;-73
2024/01/31 06:45:18;;;;;;;73.60;25.87;;;;;;;;;;4969407;28;20223;-73
2024/01/31 06:47:43;;;;;;;72.53;26.93;;;;;;;;;;4963808;28;20231;-73
2024/01/31 06:50:09;;;;;;;70.17;26.23;;;;;;;;;;4979644;28;20239;-73
2024/01/31 06:52:34;;;;;;;66.33;25.47;;;;;;;;;;4965084;28;20219;-73
2024/01/31 06:55:03;;;;;;;79.53;26.83;;;;;;;;;;4980659;28;20235;-72
2024/01/31 06:57:29;;;;;;;70.30;26.57;;;;;;;;;;4981701;28;20313;-73
2024/01/31 06:59:54;;;;;;;76.43;26.90;;;;;;;;;;4979440;28;20367;-72
2024/01/31 07:02:20;;;;;;;72.53;26.57;;;;;;;;;;4987500;28;20239;-71
2024/01/31 07:04:45;;;;;;;72.07;26.10;;;;;;;;;;4978752;28;20232;-73
2024/01/31 07:07:10;;;;;;;63.77;25.13;;;;;;;;;;4979216;28;20231;-75
2024/01/31 07:09:35;;;;;;;72.27;25.03;;;;;;;;;;4980562;28;20242;-76
2024/01/31 07:12:01;;;;;;;73.43;24.60;;;;;;;;;;4982807;28;20232;-76
2024/01/31 07:14:26;;;;;;;64.73;23.60;;;;;;;;;;4973765;28;20234;-75
2024/01/31 07:16:51;;;;;;;63.53;23.70;;;;;;;;;;4981461;28;20239;-76
2024/01/31 07:19:17;;;;;;;70.97;24.90;;;;;;;;;;4983631;28;20246;-76
2024/01/31 07:21:42;;;;;;;63.27;24.97;;;;;;;;;;4984705;28;21305;-76
2024/01/31 07:24:08;;;;;;;76.73;28.87;;;;;;;;;;4967480;28;20286;-76
2024/01/31 07:26:33;;;;;;;57.10;23.13;;;;;;;;;;4996455;28;20231;-76
2024/01/31 07:28:59;;;;;;;58.40;22.73;;;;;;;;;;4987851;28;20791;-76
2024/01/31 07:31:24;;;;;;;64.97;25.07;;;;;;;;;;4982395;28;20309;-73
2024/01/31 07:33:49;;;;;;;64.90;25.97;;;;;;;;;;4983018;28;20227;-76
2024/01/31 07:36:15;;;;;;;67.07;25.40;;;;;;;;;;4962401;28;20219;-75
2024/01/31 07:38:43;;;;;;;69.10;26.33;;;;;;;;;;4980615;28;20278;-75
2024/01/31 07:41:09;;;;;;;65.47;25.00;;;;;;;;;;4986894;28;20267;-75
2024/01/31 07:43:35;;;;;;;69.77;26.13;;;;;;;;;;4976629;28;21345;-75
2024/01/31 07:46:00;;;;;;;74.57;27.77;;;;;;;;;;4967318;28;20676;-75
2024/01/31 07:48:25;;;;;;;70.07;25.83;;;;;;;;;;4981821;28;20235;-74
2024/01/31 07:50:51;;;;;;;62.63;25.73;;;;;;;;;;4993339;28;20232;-72
2024/01/31 07:53:17;;;;;;;72.93;24.50;;;;;;;;;;4978143;28;20231;-72
2024/01/31 07:55:42;;;;;;;74.20;25.40;;;;;;;;;;4983050;28;20230;-73
2024/01/31 07:58:07;;;;;;;63.00;25.30;;;;;;;;;;4981479;28;20232;-79
2024/01/31 08:00:33;;;;;;;65.40;25.47;;;;;;;;;;4980695;28;20303;-79
2024/01/31 08:02:58;;;;;;;66.03;26.13;;;;;;;;;;4984615;28;20319;-79
2024/01/31 08:05:23;;;;;;;63.27;25.27;;;;;;;;;;4966343;28;20322;-78
2024/01/31 08:07:49;;;;;;;65.97;25.87;;;;;;;;;;4984069;28;20660;-73
2024/01/31 08:10:14;;;;;;;76.47;26.97;;;;;;;;;;4979636;28;20227;-73
2024/01/31 08:12:40;;;;;;;65.73;25.47;;;;;;;;;;4979226;28;20227;-73
2024/01/31 08:15:05;;;;;;;63.47;24.73;;;;;;;;;;4982350;28;20231;-73
2024/01/31 08:17:31;;;;;;;71.07;25.33;;;;;;;;;;4979505;28;20242;-72
2024/01/31 08:19:56;;;;;;;67.63;25.03;;;;;;;;;;4995811;28;20231;-73
2024/01/31 08:22:22;;;;;;;66.80;25.67;;;;;;;;;;4976629;28;20235;-73
2024/01/31 08:24:47;;;;;;;69.63;24.87;;;;;;;;;;4977366;28;20223;-73
2024/01/31 08:27:12;;;;;;;60.37;23.70;;;;;;;;;;4977566;28;20262;-73
2024/01/31 08:29:38;;;;;;;72.03;26.80;;;;;;;;;;4979132;28;20231;-74
2024/01/31 08:32:04;;;;;;;67.53;26.63;;;;;;;;;;4978321;28;20239;-73
2024/01/31 08:34:29;;;;;;;73.07;27.47;;;;;;;;;;4959469;28;20615;-73
2024/01/31 08:36:54;;;;;;;75.67;28.70;;;;;;;;;;4982732;28;20223;-73
2024/01/31 08:39:20;;;;;;;67.63;27.70;;;;;;;;;;4980654;28;20231;-73
2024/01/31 08:41:45;;;;;;;66.57;25.33;;;;;;;;;;4974850;28;20920;-72
2024/01/31 08:44:13;;;;;;;66.13;25.70;;;;;;;;;;4976349;28;20696;-72
2024/01/31 08:46:39;;;;;;;69.67;27.03;;;;;;;;;;4980477;28;20242;-73
2024/01/31 08:49:04;;;;;;;74.73;28.97;;;;;;;;;;4971674;28;20705;-73
2024/01/31 08:51:30;;;;;;;73.47;28.63;;;;;;;;;;4978188;28;20239;-72
2024/01/31 08:53:55;;;;;;;68.83;27.63;;;;;;;;;;4982181;28;20285;-71
2024/01/31 08:56:21;;;;;;;73.43;29.00;;;;;;;;;;4993122;28;20227;-81
2024/01/31 08:58:46;;;;;;;69.60;27.33;;;;;;;;;;4982729;28;20644;-79
2024/01/31 09:01:12;;;;;;;70.83;28.60;;;;;;;;;;4978413;28;20716;-72
2024/01/31 09:03:37;;;;;;;71.73;28.07;;;;;;;;;;4981449;28;20215;-72
2024/01/31 09:06:03;;;;;;;77.17;27.77;;;;;;;;;;4962353;28;20313;-73
2024/01/31 09:08:28;;;;;;;70.97;27.93;;;;;;;;;;4965631;28;20223;-73
2024/01/31 09:10:53;;;;;;;70.87;29.50;;;;;;;;;;4978831;28;20247;-72
2024/01/31 09:13:19;;;;;;;83.43;29.07;;;;;;;;;;4977367;28;20240;-72
2024/01/31 09:15:44;;;;;;;69.93;27.43;;;;;;;;;;4977506;28;20665;-73
2024/01/31 09:18:10;;;;;;;68.53;27.77;;;;;;;;;;4978806;28;20235;-74
2024/01/31 09:20:35;;;;;;;77.57;28.60;;;;;;;;;;4981394;28;20258;-72
2024/01/31 09:23:00;;;;;;;71.17;29.30;;;;;;;;;;4964293;28;20262;-74
2024/01/31 09:25:26;;;;;;;69.77;26.57;;;;;;;;;;4983288;28;20230;-73
2024/01/31 09:27:51;;;;;;;70.07;28.63;;;;;;;;;;4975372;28;20282;-73
2024/01/31 09:30:16;;;;;;;67.43;27.77;;;;;;;;;;4973222;28;20353;-73
2024/01/31 09:32:44;;;;;;;69.33;28.57;;;;;;;;;;4980942;28;20224;-73
2024/01/31 09:35:09;;;;;;;77.53;28.07;;;;;;;;;;4968470;28;20223;-73
2024/01/31 09:37:35;;;;;;;71.40;27.17;;;;;;;;;;4983913;28;20650;-73
2024/01/31 09:40:00;;;;;;;67.37;27.50;;;;;;;;;;4981187;28;20233;-72
2024/01/31 09:42:26;;;;;;;64.47;27.03;;;;;;;;;;4982082;28;20245;-72
2024/01/31 09:44:51;;;;;;;69.63;27.70;;;;;;;;;;4970461;28;20234;-72
2024/01/31 09:47:17;;;;;;;71.80;28.90;;;;;;;;;;4987040;28;20235;-73
2024/01/31 09:49:42;;;;;;;75.37;29.40;;;;;;;;;;4971648;28;20651;-73
2024/01/31 09:52:07;;;;;;;78.97;29.77;;;;;;;;;;4982211;28;20227;-72
2024/01/31 09:54:33;;;;;;;64.77;27.53;;;;;;;;;;4983350;28;20673;-72
2024/01/31 09:56:58;;;;;;;78.53;30.10;;;;;;;;;;4964789;28;20235;-72
2024/01/31 09:59:26;;;;;;;74.67;29.03;;;;;;;;;;4976400;28;20993;-72
2024/01/31 10:01:55;;;;;;;72.33;27.87;;;;;;;;;;4985944;28;20293;-72
2024/01/31 10:04:20;;;;;;;78.33;29.47;;;;;;;;;;4985211;28;20235;-72
2024/01/31 10:06:45;;;;;;;78.47;29.77;;;;;;;;;;4984273;28;20233;-72
2024/01/31 10:09:10;;;;;;;77.23;29.77;;;;;;;;;;4981131;28;20231;-72
2024/01/31 10:11:36;;;;;;;75.80;29.63;;;;;;;;;;4986951;28;20223;-72
2024/01/31 10:14:01;;;;;;;73.30;29.20;;;;;;;;;;4973406;28;20683;-71
2024/01/31 10:16:27;;;;;;;72.90;27.37;;;;;;;;;;4984993;28;20247;-72
2024/01/31 10:18:52;;;;;;;65.53;28.63;;;;;;;;;;4983465;28;20235;-71
2024/01/31 10:21:21;;;;;;;78.43;28.70;;;;;;;;;;4982744;28;20847;-72
2024/01/31 10:24:16;;;;;;;66.70;27.07;;;;;;;;;;4986440;28;20311;-71
2024/01/31 10:26:41;;;;;;;65.17;26.83;;;;;;;;;;4976004;28;20225;-70
2024/01/31 10:29:06;;;;;;;71.17;27.90;;;;;;;;;;4987738;28;20223;-72
2024/01/31 10:31:32;;;;;;;69.53;27.63;;;;;;;;;;4982381;28;21158;-71
2024/01/31 10:33:57;;;;;;;71.17;28.13;;;;;;;;;;4985376;28;20223;-71
2024/01/31 10:36:23;;;;;;;66.63;27.13;;;;;;;;;;4980401;28;20227;-71
2024/01/31 10:38:48;;;;;;;62.50;26.83;;;;;;;;;;4990007;28;21065;-71
2024/01/31 10:41:15;;;;;;;66.90;27.20;;;;;;;;;;4980478;28;20216;-71
2024/01/31 10:43:41;;;;;;;68.90;27.63;;;;;;;;;;4978334;28;20234;-71
2024/01/31 10:46:07;;;;;;;68.90;27.00;;;;;;;;;;4990017;28;20220;-71
2024/01/31 10:48:32;;;;;;;65.97;27.20;;;;;;;;;;4983353;28;20224;-71
2024/01/31 10:50:57;;;;;;;65.80;26.50;;;;;;;;;;4977917;28;20236;-79
2024/01/31 10:53:23;;;;;;;60.47;24.97;;;;;;;;;;4982977;28;20235;-78
2024/01/31 10:55:48;;;;;;;62.97;25.47;;;;;;;;;;4981036;28;20954;-78
2024/01/31 10:58:14;;;;;;;56.67;24.90;;;;;;;;;;4980906;28;20227;-78
2024/01/31 11:00:45;;;;;;;63.07;25.27;;;;;;;;;;4984341;28;20223;-78
2024/01/31 11:03:12;;;;;;;60.30;25.00;;;;;;;;;;4982368;28;20235;-77
2024/01/31 11:05:38;;;;;;;62.80;25.10;;;;;;;;;;4985117;28;20302;-78
2024/01/31 11:08:04;;;;;;;60.87;24.90;;;;;;;;;;4967220;28;20682;-79
2024/01/31 11:10:29;;;;;;;58.73;24.30;;;;;;;;;;4963925;28;20235;-78
2024/01/31 11:12:59;;;;;;;62.70;24.77;;;;;;;;;;4986095;28;20228;-79
2024/01/31 11:15:28;;;;;;;61.97;24.80;;;;;;;;;;4972079;28;20230;-79
2024/01/31 11:18:08;;;;;;;59.53;24.40;;;;;;;;;;4985599;28;20449;-78
2024/01/31 11:20:34;;;;;;;305.67;101.17;;;;;;;;;;4979186;28;20234;-78
2024/01/31 11:23:03;;;;;;;129.73;49.23;;;;;;;;;;4976257;28;20228;-78
2024/01/31 11:25:31;;;;;;;57.23;25.40;;;;;;;;;;4976151;28;20227;-78
2024/01/31 11:27:56;;;;;;;71.97;31.83;;;;;;;;;;4981387;28;20259;-77
2024/01/31 11:30:22;;;;;;;58.67;24.10;;;;;;;;;;4976492;28;20319;-79
2024/01/31 11:32:48;;;;;;;67.57;30.37;;;;;;;;;;4969982;28;20235;-78
2024/01/31 11:35:13;;;;;;;60.37;25.07;;;;;;;;;;4980004;28;20224;-79
2024/01/31 11:37:38;;;;;;;68.70;27.50;;;;;;;;;;4977991;28;20223;-78
2024/01/31 11:40:04;;;;;;;65.50;26.43;;;;;;;;;;4994609;28;20227;-80
2024/01/31 11:42:30;;;;;;;68.40;27.17;;;;;;;;;;4971455;28;20678;-78
2024/01/31 11:44:55;;;;;;;65.93;26.53;;;;;;;;;;4983083;28;20231;-80
2024/01/31 11:47:21;;;;;;;68.90;26.07;;;;;;;;;;4981043;28;20231;-73
2024/01/31 11:49:47;;;;;;;93.60;43.63;;;;;;;;;;4984378;28;20624;-72
2024/01/31 11:52:12;;;;;;;63.67;27.60;;;;;;;;;;4979589;28;20963;-73
2024/01/31 11:54:39;;;;;;;70.83;29.00;;;;;;;;;;4981070;28;20220;-72
2024/01/31 11:57:05;;;;;;;65.93;26.93;;;;;;;;;;4978718;28;20250;-72
2024/01/31 11:59:30;;;;;;;59.73;26.00;;;;;;;;;;4981164;28;20619;-72
2024/01/31 12:01:55;;;;;;;65.50;27.30;;;;;;;;;;4986130;28;20262;-71
2024/01/31 12:04:22;;;;;;;67.37;29.10;;;;;;;;;;4978360;28;20288;-72
2024/01/31 12:06:47;;;;;;;61.33;27.80;;;;;;;;;;4984160;28;20732;-72
2024/01/31 12:09:13;;;;;;;75.03;32.10;;;;;;;;;;4983104;28;20242;-73
2024/01/31 12:11:38;;;;;;;68.50;28.90;;;;;;;;;;4980630;28;20223;-72
2024/01/31 12:14:04;;;;;;;132.50;57.87;;;;;;;;;;4980142;28;20231;-72
2024/01/31 12:16:38;;;;;;;67.83;28.60;;;;;;;;;;4978941;28;22496;-72
2024/01/31 12:19:04;;;;;;;74.73;31.37;;;;;;;;;;4979753;28;20234;-72
2024/01/31 12:21:38;;;;;;;65.83;28.80;;;;;;;;;;4993467;28;20228;-72
2024/01/31 12:24:04;;;;;;;72.50;28.67;;;;;;;;;;4964356;28;20237;-72
2024/01/31 12:26:29;;;;;;;75.17;28.87;;;;;;;;;;4980053;28;20224;-72
2024/01/31 12:28:55;;;;;;;72.03;28.67;;;;;;;;;;4964421;28;20247;-72
2024/01/31 12:31:21;;;;;;;74.50;28.83;;;;;;;;;;4977996;28;20235;-72
2024/01/31 12:33:46;;;;;;;72.77;28.63;;;;;;;;;;4980226;28;20219;-72
2024/01/31 12:36:12;;;;;;;87.50;33.23;;;;;;;;;;4982168;28;20720;-72
2024/01/31 12:38:37;;;;;;;89.23;33.83;;;;;;;;;;4978419;28;20236;-72
2024/01/31 12:41:02;;;;;;;114.13;38.83;;;;;;;;;;4960877;28;20224;-72
2024/01/31 12:43:28;;;;;;;133.80;44.50;;;;;;;;;;4977797;28;20677;-72
2024/01/31 12:45:53;;;;;;;133.73;43.30;;;;;;;;;;4977194;28;20662;-72
2024/01/31 12:48:18;;;;;;;137.37;42.20;;;;;;;;;;4964776;28;20234;-72
2024/01/31 12:50:44;;;;;;;131.67;44.33;;;;;;;;;;4980458;28;20235;-72
2024/01/31 12:53:09;;;;;;;146.87;47.53;;;;;;;;;;4997351;28;20228;-72
2024/01/31 12:55:35;;;;;;;154.43;46.83;;;;;;;;;;4981316;28;20279;-72
2024/01/31 12:58:00;;;;;;;130.40;41.57;;;;;;;;;;4979631;28;20272;-72
2024/01/31 13:00:25;;;;;;;126.67;40.10;;;;;;;;;;4982133;28;20230;-71
2024/01/31 13:02:50;;;;;;;117.70;38.83;;;;;;;;;;4982546;28;20722;-72
2024/01/31 13:05:16;;;;;;;105.77;36.90;;;;;;;;;;4967767;28;20262;-72
2024/01/31 13:07:41;;;;;;;82.07;32.80;;;;;;;;;;4983671;28;20777;-73
2024/01/31 13:10:07;;;;;;;88.63;34.60;;;;;;;;;;4978919;28;20799;-73
2024/01/31 13:12:32;;;;;;;95.83;36.80;;;;;;;;;;4983124;28;20804;-72
2024/01/31 13:14:59;;;;;;;103.90;35.70;;;;;;;;;;4978866;28;20235;-72
2024/01/31 13:17:24;;;;;;;82.07;32.50;;;;;;;;;;4975615;28;20247;-72
2024/01/31 13:19:50;;;;;;;82.37;31.57;;;;;;;;;;4977443;28;20287;-72
2024/01/31 13:22:15;;;;;;;71.43;30.13;;;;;;;;;;4978957;28;20721;-72
2024/01/31 13:24:41;;;;;;;73.07;30.43;;;;;;;;;;4976396;28;20223;-72
2024/01/31 13:27:06;;;;;;;74.53;29.43;;;;;;;;;;4977344;28;20692;-72
2024/01/31 13:29:32;;;;;;;67.43;28.30;;;;;;;;;;4981614;28;20227;-72
2024/01/31 13:31:57;;;;;;;69.03;29.43;;;;;;;;;;4968516;28;20254;-71
2024/01/31 13:34:23;;;;;;;61.33;27.07;;;;;;;;;;4983708;28;20228;-72
2024/01/31 13:36:50;;;;;;;60.40;26.33;;;;;;;;;;4978747;28;20228;-72
2024/01/31 13:39:15;;;;;;;84.60;32.50;;;;;;;;;;4978907;28;20283;-71
2024/01/31 13:41:41;;;;;;;65.17;26.80;;;;;;;;;;4983195;28;20231;-71
2024/01/31 13:44:07;;;;;;;61.73;25.17;;;;;;;;;;4981837;28;20623;-71
2024/01/31 13:46:32;;;;;;;63.30;25.20;;;;;;;;;;4978776;28;20223;-71
2024/01/31 13:48:59;;;;;;;58.07;25.50;;;;;;;;;;4951983;28;20222;-71
2024/01/31 13:51:25;;;;;;;66.90;26.30;;;;;;;;;;4980467;28;20235;-73
2024/01/31 13:53:50;;;;;;;62.33;25.83;;;;;;;;;;4980162;28;20234;-78
2024/01/31 13:56:15;;;;;;;68.73;29.17;;;;;;;;;;4983428;28;20616;-77
2024/01/31 13:58:42;;;;;;;76.33;32.47;;;;;;;;;;4969333;28;20915;-77
2024/01/31 14:01:08;;;;;;;70.60;28.37;;;;;;;;;;4976399;28;20228;-77
2024/01/31 14:03:33;;;;;;;56.20;24.27;;;;;;;;;;4977003;28;20238;-78
2024/01/31 14:05:58;;;;;;;91.67;42.27;;;;;;;;;;4977607;28;20260;-76
2024/01/31 14:08:24;;;;;;;54.40;24.13;;;;;;;;;;4960720;28;20231;-77